Time;durP1;ratioP1;P1;durP2;ratioP2;P2;SDS_P1;SDS_P2;PMS_P1;PMS_P2;Temp;Humidity;BMP_temperature;BMP_pressure;BME280_temperature;BME280_humidity;BME280_pressure;Samples;Min_cycle;Max_cycle;Signal;HPM_P1;HPM_P2
2021/09/04 00:02:13;;;;;;;2.65;2.50;;;;;;;17.64;56.67;100695.88;4943447;28;20120;-75
2021/09/04 00:04:39;;;;;;;2.42;1.70;;;;;;;17.62;56.58;100704.50;4960972;28;20026;-74
2021/09/04 00:07:05;;;;;;;2.72;2.63;;;;;;;17.61;57.08;100689.00;4950631;28;20073;-75
2021/09/04 00:09:31;;;;;;;2.33;2.15;;;;;;;17.62;57.09;100696.19;4961670;28;20043;-75
2021/09/04 00:11:56;;;;;;;2.45;2.03;;;;;;;17.63;56.89;100700.56;4962613;28;20409;-75
2021/09/04 00:14:22;;;;;;;4.07;2.75;;;;;;;17.66;57.04;100703.88;4967342;28;20031;-74
2021/09/04 00:16:47;;;;;;;3.05;2.85;;;;;;;17.70;57.41;100700.19;4962160;28;20046;-74
2021/09/04 00:19:13;;;;;;;5.55;5.20;;;;;;;17.73;57.67;100698.75;4963751;28;20037;-74
2021/09/04 00:21:38;;;;;;;4.60;4.30;;;;;;;17.74;57.37;100694.84;4944774;28;20036;-74
2021/09/04 00:24:04;;;;;;;4.47;4.18;;;;;;;17.70;57.31;100700.19;4967581;28;20070;-75
2021/09/04 00:26:29;;;;;;;4.10;3.80;;;;;;;17.67;57.73;100699.97;4932225;28;20035;-75
2021/09/04 00:28:54;;;;;;;3.67;3.38;;;;;;;17.61;57.70;100694.53;4952154;28;20047;-75
2021/09/04 00:31:20;;;;;;;4.60;3.03;;;;;;;17.58;57.37;100692.41;4949393;28;20134;-75
2021/09/04 00:33:45;;;;;;;2.50;2.40;;;;;;;17.52;57.40;100692.78;4947586;28;20089;-75
2021/09/04 00:36:11;;;;;;;3.08;2.95;;;;;;;17.48;57.90;100692.59;4950709;28;20496;-75
2021/09/04 00:38:37;;;;;;;3.70;3.50;;;;;;;17.40;58.09;100685.00;4951434;28;20417;-75
2021/09/04 00:41:02;;;;;;;2.95;2.72;;;;;;;17.36;58.22;100690.34;4952925;28;20614;-77
2021/09/04 00:43:27;;;;;;;3.10;2.85;;;;;;;17.33;57.95;100685.41;4972685;28;20030;-76
2021/09/04 00:45:53;;;;;;;3.35;3.15;;;;;;;17.27;58.34;100681.09;4965240;28;20422;-75
2021/09/04 00:48:18;;;;;;;4.82;4.05;;;;;;;17.23;58.75;100675.38;4943391;28;20035;-75
2021/09/04 00:50:44;;;;;;;3.90;3.70;;;;;;;17.17;58.44;100671.06;4966237;28;20022;-74
2021/09/04 00:53:09;;;;;;;4.82;4.43;;;;;;;17.14;58.72;100663.38;4934397;28;20050;-75
2021/09/04 00:55:35;;;;;;;4.55;4.20;;;;;;;17.10;59.08;100668.69;4966322;28;20811;-75
2021/09/04 00:58:00;;;;;;;4.20;3.80;;;;;;;17.05;59.03;100667.97;4967644;28;20034;-75
2021/09/04 01:00:26;;;;;;;3.20;3.03;;;;;;;16.98;59.46;100660.09;4976462;28;20055;-75
2021/09/04 01:02:51;;;;;;;3.28;2.85;;;;;;;16.99;59.15;100658.13;4991035;28;20493;-75
2021/09/04 01:05:17;;;;;;;2.72;2.53;;;;;;;16.99;59.25;100661.69;4991883;28;20022;-75
2021/09/04 01:07:43;;;;;;;1.63;1.25;;;;;;;17.06;58.92;100653.03;4984563;28;20030;-75
2021/09/04 01:10:10;;;;;;;2.75;2.65;;;;;;;17.13;59.72;100652.63;4991753;28;20104;-75
2021/09/04 01:12:37;;;;;;;3.22;2.92;;;;;;;17.19;59.51;100645.91;4971143;28;20034;-75
2021/09/04 01:15:04;;;;;;;2.40;2.22;;;;;;;17.26;59.41;100654.59;4990608;28;20026;-76
2021/09/04 01:17:30;;;;;;;3.22;2.92;;;;;;;17.29;59.27;100651.22;4985386;28;20052;-75
2021/09/04 01:19:56;;;;;;;2.67;2.58;;;;;;;17.33;59.52;100648.66;4981123;28;20027;-76
2021/09/04 01:22:22;;;;;;;3.42;3.20;;;;;;;17.33;59.24;100643.94;4989008;28;20150;-75
2021/09/04 01:24:49;;;;;;;4.63;4.22;;;;;;;17.33;59.29;100646.69;4986013;28;20030;-75
2021/09/04 01:27:17;;;;;;;4.95;4.60;;;;;;;17.37;59.73;100646.91;4985276;28;20423;-75
2021/09/04 01:29:43;;;;;;;3.58;3.38;;;;;;;17.43;59.62;100651.22;4988898;28;20026;-75
2021/09/04 01:32:08;;;;;;;2.83;2.63;;;;;;;17.45;59.54;100649.78;4970155;28;20087;-76
2021/09/04 01:34:34;;;;;;;4.18;3.85;;;;;;;17.49;59.42;100660.22;4990460;28;20053;-76
2021/09/04 01:36:59;;;;;;;3.75;3.38;;;;;;;17.52;59.91;100660.44;4989533;28;20026;-77
2021/09/04 01:39:25;;;;;;;3.78;3.53;;;;;;;17.53;59.62;100652.97;4984620;28;20085;-77
2021/09/04 01:41:51;;;;;;;4.03;3.70;;;;;;;17.52;59.81;100643.88;4992219;28;20026;-76
2021/09/04 01:44:16;;;;;;;6.85;5.68;;;;;;;17.57;60.49;100640.97;4964926;28;20033;-76
2021/09/04 01:46:42;;;;;;;7.43;6.18;;;;;;;17.60;60.00;100637.59;4977005;28;20026;-76
2021/09/04 01:49:07;;;;;;;6.32;5.22;;;;;;;17.69;59.96;100636.88;4989331;28;20114;-76
2021/09/04 01:51:33;;;;;;;4.05;3.78;;;;;;;17.71;59.69;100627.16;4952226;28;20497;-77
2021/09/04 01:53:59;;;;;;;4.28;3.47;;;;;;;17.75;60.05;100630.91;4991634;28;20034;-77
2021/09/04 01:56:25;;;;;;;4.32;3.83;;;;;;;17.78;59.96;100623.94;4990214;28;20031;-77
2021/09/04 01:58:51;;;;;;;3.42;3.13;;;;;;;17.79;59.75;100620.88;4997254;28;20065;-75
2021/09/04 02:01:17;;;;;;;4.68;4.32;;;;;;;17.81;59.52;100623.31;4990266;28;20480;-74
2021/09/04 02:03:43;;;;;;;8.52;7.43;;;;;;;17.83;59.91;100623.03;4970941;28;20026;-74
2021/09/04 02:06:09;;;;;;;5.90;5.45;;;;;;;17.84;59.88;100621.91;4988892;28;20026;-74
2021/09/04 02:08:34;;;;;;;5.75;5.32;;;;;;;17.83;60.07;100625.78;4983723;28;20096;-74
2021/09/04 02:11:00;;;;;;;5.35;4.82;;;;;;;17.82;59.91;100621.41;4985118;28;20096;-76
2021/09/04 02:13:27;;;;;;;4.93;3.88;;;;;;;17.79;60.11;100620.06;4979442;28;20049;-76
2021/09/04 02:15:52;;;;;;;4.72;4.43;;;;;;;17.76;60.21;100623.47;4986649;28;20050;-75
2021/09/04 02:18:20;;;;;;;3.58;3.30;;;;;;;17.70;60.01;100627.47;4958157;28;20064;-75
2021/09/04 02:20:45;;;;;;;3.30;3.15;;;;;;;17.60;60.15;100623.78;4970091;28;20046;-74
2021/09/04 02:23:11;;;;;;;3.58;3.28;;;;;;;17.54;59.96;100619.47;4974046;28;20029;-74
2021/09/04 02:25:36;;;;;;;3.40;3.20;;;;;;;17.43;60.01;100615.28;4980993;28;20053;-74
2021/09/04 02:28:03;;;;;;;2.60;2.40;;;;;;;17.34;60.27;100625.44;4989977;28;20034;-74
2021/09/04 02:30:28;;;;;;;2.22;2.13;;;;;;;17.22;60.01;100617.66;4984673;28;20034;-73
2021/09/04 02:32:54;;;;;;;2.72;2.42;;;;;;;17.10;60.32;100618.97;4966723;28;20046;-73
2021/09/04 02:35:19;;;;;;;2.13;2.03;;;;;;;16.95;60.54;100623.94;4986435;28;20026;-75
2021/09/04 02:37:45;;;;;;;2.05;1.95;;;;;;;16.82;60.25;100623.59;4965820;28;20027;-73
2021/09/04 02:40:11;;;;;;;1.60;1.50;;;;;;;16.64;60.59;100616.97;4984578;28;20053;-74
2021/09/04 02:42:36;;;;;;;1.42;1.38;;;;;;;16.53;60.91;100618.31;4967297;28;20054;-74
2021/09/04 02:45:02;;;;;;;2.72;1.50;;;;;;;16.41;60.59;100615.97;4988682;28;20034;-75
2021/09/04 02:47:28;;;;;;;1.77;1.67;;;;;;;16.31;61.21;100607.88;4984666;28;20158;-74
2021/09/04 02:49:53;;;;;;;1.27;1.27;;;;;;;16.19;61.09;100602.81;4971796;28;20495;-74
2021/09/04 02:52:18;;;;;;;1.42;1.33;;;;;;;16.13;61.40;100602.06;4962705;28;20019;-75
2021/09/04 02:54:44;;;;;;;1.63;1.52;;;;;;;16.09;61.74;100608.47;4984417;28;20026;-74
2021/09/04 02:57:09;;;;;;;1.88;1.77;;;;;;;16.00;61.88;100600.06;4978505;28;20050;-74
2021/09/04 02:59:35;;;;;;;2.08;1.92;;;;;;;15.95;61.51;100591.88;4955251;28;20047;-77
2021/09/04 03:02:00;;;;;;;2.50;2.40;;;;;;;15.90;61.82;100595.50;4958678;28;20070;-78
2021/09/04 03:04:26;;;;;;;2.83;2.60;;;;;;;15.83;61.88;100593.13;4965538;28;20036;-78
2021/09/04 03:06:51;;;;;;;1.70;1.60;;;;;;;15.82;61.84;100594.25;4970422;28;20031;-76
2021/09/04 03:09:17;;;;;;;2.47;2.00;;;;;;;15.78;62.25;100587.69;4969464;28;20027;-76
2021/09/04 03:11:43;;;;;;;1.73;1.63;;;;;;;15.74;61.81;100592.13;4969947;28;20496;-75
2021/09/04 03:14:08;;;;;;;3.65;3.35;;;;;;;15.73;62.29;100578.66;4961629;28;20114;-76
2021/09/04 03:16:34;;;;;;;4.57;3.80;;;;;;;15.74;62.37;100588.53;4953620;28;20022;-76
2021/09/04 03:18:59;;;;;;;4.25;3.85;;;;;;;15.74;62.46;100583.88;4961407;28;20027;-75
2021/09/04 03:21:25;;;;;;;7.32;3.63;;;;;;;15.73;62.55;100586.91;4966160;28;20046;-76
2021/09/04 03:23:50;;;;;;;3.65;3.45;;;;;;;15.72;62.33;100583.31;4969338;28;20566;-73
2021/09/04 03:26:16;;;;;;;3.47;3.28;;;;;;;15.69;62.51;100579.22;4964351;28;20093;-70
2021/09/04 03:28:41;;;;;;;3.45;3.25;;;;;;;15.69;62.69;100583.94;4967580;28;20026;-72
2021/09/04 03:31:07;;;;;;;4.30;4.00;;;;;;;15.65;62.66;100577.34;4963733;28;20373;-73
2021/09/04 03:33:32;;;;;;;4.20;3.83;;;;;;;15.62;63.10;100566.94;4965623;28;20027;-72
2021/09/04 03:35:58;;;;;;;3.63;3.33;;;;;;;15.56;62.87;100573.63;4954844;28;20030;-74
2021/09/04 03:38:23;;;;;;;4.68;4.30;;;;;;;15.56;63.28;100579.16;4969380;28;20033;-74
2021/09/04 03:40:49;;;;;;;4.32;3.95;;;;;;;15.52;63.02;100582.50;4968529;28;20035;-74
2021/09/04 03:43:14;;;;;;;3.70;3.50;;;;;;;15.46;63.27;100575.41;4966945;28;20537;-73
2021/09/04 03:45:40;;;;;;;4.63;4.40;;;;;;;15.45;63.07;100582.03;4964911;28;20026;-72
2021/09/04 03:48:05;;;;;;;4.25;3.85;;;;;;;15.42;63.17;100579.88;4932418;29;20083;-71
2021/09/04 03:50:31;;;;;;;4.10;3.90;;;;;;;15.38;63.23;100573.31;4949365;28;20030;-71
2021/09/04 03:52:56;;;;;;;3.83;3.53;;;;;;;15.34;63.55;100577.75;4968315;28;20331;-72
2021/09/04 03:55:22;;;;;;;3.95;3.75;;;;;;;15.31;63.37;100583.84;4967445;28;20034;-72
2021/09/04 03:57:47;;;;;;;5.55;5.05;;;;;;;15.29;63.62;100581.41;4979026;28;20031;-73
2021/09/04 04:00:13;;;;;;;6.57;5.97;;;;;;;15.29;63.87;100580.59;4980896;28;20051;-73
2021/09/04 04:02:39;;;;;;;5.38;4.40;;;;;;;15.26;63.72;100575.63;4976566;28;20046;-72
2021/09/04 04:05:05;;;;;;;4.65;3.65;;;;;;;15.25;63.76;100579.53;4975983;28;20050;-72
2021/09/04 04:07:30;;;;;;;4.70;4.30;;;;;;;15.19;63.64;100578.78;4981652;28;20035;-72
2021/09/04 04:09:56;;;;;;;3.70;3.50;;;;;;;15.14;64.01;100579.66;4984022;28;20094;-72
2021/09/04 04:12:22;;;;;;;4.38;3.97;;;;;;;15.12;64.09;100578.28;4971140;28;20161;-73
2021/09/04 04:14:47;;;;;;;5.18;3.97;;;;;;;15.11;63.94;100571.97;4972448;28;20364;-74
2021/09/04 04:17:12;;;;;;;5.63;5.13;;;;;;;15.12;64.26;100575.53;4968695;28;20125;-72
2021/09/04 04:19:38;;;;;;;6.38;5.25;;;;;;;15.13;64.31;100572.50;4968233;28;20031;-73
2021/09/04 04:22:03;;;;;;;4.97;4.57;;;;;;;15.13;64.55;100575.25;4972909;28;20039;-74
2021/09/04 04:24:29;;;;;;;4.85;4.25;;;;;;;15.11;64.67;100574.72;4968434;28;20090;-73
2021/09/04 04:26:54;;;;;;;6.50;3.67;;;;;;;15.12;64.34;100576.34;4969886;28;20106;-71
2021/09/04 04:29:20;;;;;;;4.43;4.13;;;;;;;15.13;64.39;100577.19;4971124;28;20026;-72
2021/09/04 04:31:45;;;;;;;4.93;4.53;;;;;;;15.12;64.75;100570.84;4975138;28;20034;-72
2021/09/04 04:34:11;;;;;;;5.65;4.70;;;;;;;15.11;64.74;100574.72;4954628;28;20031;-72
2021/09/04 04:36:36;;;;;;;4.45;4.22;;;;;;;15.09;64.70;100576.94;4970750;28;20113;-71
2021/09/04 04:39:02;;;;;;;4.97;4.68;;;;;;;15.11;64.42;100580.25;4955449;28;20077;-71
2021/09/04 04:41:28;;;;;;;5.13;4.65;;;;;;;15.11;65.25;100590.41;4972048;28;20059;-71
2021/09/04 04:43:53;;;;;;;3.75;3.53;;;;;;;15.07;65.01;100581.94;4970088;28;20072;-71
2021/09/04 04:46:19;;;;;;;4.97;4.53;;;;;;;15.07;64.87;100589.34;4969394;28;20038;-71
2021/09/04 04:48:44;;;;;;;4.00;3.80;;;;;;;15.01;64.82;100597.69;4967795;28;20150;-71
2021/09/04 04:51:10;;;;;;;3.33;3.13;;;;;;;14.97;64.67;100591.13;4969269;28;20085;-71
2021/09/04 04:53:35;;;;;;;6.00;3.75;;;;;;;14.93;65.26;100594.75;4962768;28;20041;-72
2021/09/04 04:56:02;;;;;;;3.03;2.83;;;;;;;14.87;64.80;100596.72;4966504;28;20424;-73
2021/09/04 04:58:28;;;;;;;2.90;2.75;;;;;;;14.82;65.02;100600.34;4972884;28;20517;-72
2021/09/04 05:00:54;;;;;;;4.68;2.35;;;;;;;14.79;65.04;100594.59;4969421;28;20405;-71
2021/09/04 05:03:20;;;;;;;4.25;3.92;;;;;;;14.75;64.59;100602.63;4990754;28;20034;-72
2021/09/04 05:05:45;;;;;;;3.53;3.22;;;;;;;14.72;65.01;100600.47;4950960;28;20400;-72
2021/09/04 05:08:11;;;;;;;3.53;3.22;;;;;;;14.69;64.91;100605.72;4990334;28;20018;-71
2021/09/04 05:10:36;;;;;;;5.32;4.20;;;;;;;14.68;65.57;100599.38;4975237;28;20026;-72
2021/09/04 05:13:02;;;;;;;3.90;3.60;;;;;;;14.63;64.90;100603.00;4988016;28;20039;-73
2021/09/04 05:15:30;;;;;;;3.70;3.13;;;;;;;14.62;65.69;100600.56;4977307;28;20042;-73
2021/09/04 05:17:55;;;;;;;3.53;3.33;;;;;;;14.56;65.36;100598.91;4954835;28;20541;-73
2021/09/04 05:20:21;;;;;;;4.32;4.05;;;;;;;14.51;65.50;100599.78;4973565;28;20149;-73
2021/09/04 05:22:47;;;;;;;3.72;3.42;;;;;;;14.48;65.62;100600.34;4985069;28;20038;-75
2021/09/04 05:25:31;;;;;;;3.90;3.58;;;;;;;14.47;65.95;100607.78;4966332;28;20447;-75
2021/09/04 05:27:57;;;;;;;3.17;2.85;;;;;;;14.44;65.83;100615.78;4972179;28;20084;-72
2021/09/04 05:30:22;;;;;;;3.03;2.90;;;;;;;14.35;65.77;100607.31;4987408;28;20030;-72
2021/09/04 05:32:47;;;;;;;3.47;3.17;;;;;;;14.28;66.14;100606.81;4975151;28;20037;-72
2021/09/04 05:35:13;;;;;;;3.47;3.10;;;;;;;14.27;66.26;100610.72;4967328;28;20050;-72
2021/09/04 05:37:38;;;;;;;3.05;2.85;;;;;;;14.24;65.97;100612.09;4984637;28;20115;-73
2021/09/04 05:40:04;;;;;;;4.40;3.60;;;;;;;14.23;66.44;100615.13;4974640;28;20109;-72
2021/09/04 05:42:30;;;;;;;4.32;3.20;;;;;;;14.21;66.84;100617.34;4984258;28;20476;-71
2021/09/04 05:44:56;;;;;;;4.38;3.42;;;;;;;14.17;65.93;100608.03;4986935;28;20060;-73
2021/09/04 05:47:21;;;;;;;2.55;2.45;;;;;;;14.17;66.47;100611.59;4971467;28;20038;-72
2021/09/04 05:49:47;;;;;;;2.72;2.53;;;;;;;14.13;66.29;100611.34;4990149;28;20124;-71
2021/09/04 05:52:12;;;;;;;3.92;3.03;;;;;;;14.13;66.50;100605.84;4970857;28;20038;-77
2021/09/04 05:54:38;;;;;;;4.00;3.65;;;;;;;14.14;66.65;100607.47;4991003;28;20890;-77
2021/09/04 05:57:03;;;;;;;6.93;3.35;;;;;;;14.19;66.25;100614.88;4979677;28;20026;-77
2021/09/04 05:59:30;;;;;;;4.25;3.83;;;;;;;14.22;66.44;100599.72;4948887;28;20096;-76
2021/09/04 06:01:56;;;;;;;3.63;3.38;;;;;;;14.28;66.34;100604.91;4958583;28;20038;-77
2021/09/04 06:04:22;;;;;;;4.78;4.47;;;;;;;14.29;66.55;100594.72;4971186;28;20038;-76
2021/09/04 06:06:48;;;;;;;6.45;5.00;;;;;;;14.37;66.59;100601.53;4957937;28;20030;-75
2021/09/04 06:09:13;;;;;;;6.00;5.00;;;;;;;14.41;66.15;100600.69;4973356;28;20030;-73
2021/09/04 06:12:15;;;;;;;7.95;5.70;;;;;;;14.44;66.41;100594.63;4942100;28;20041;-74
2021/09/04 06:14:41;;;;;;;7.07;5.53;;;;;;;14.52;65.97;100597.84;4961672;28;20023;-75
2021/09/04 06:17:11;;;;;;;6.95;5.88;;;;;;;14.55;66.35;100589.03;4946025;28;20026;-74
2021/09/04 06:19:40;;;;;;;8.40;6.10;;;;;;;14.63;66.17;100591.16;4950592;28;20030;-73
2021/09/04 06:22:07;;;;;;;6.80;5.32;;;;;;;14.62;66.18;100595.06;4940216;28;20039;-73
2021/09/04 06:24:33;;;;;;;7.07;5.78;;;;;;;14.63;66.45;100605.75;4950774;28;20042;-74
2021/09/04 06:27:37;;;;;;;9.75;5.43;;;;;;;14.63;66.50;100607.69;4964696;28;20373;-74
2021/09/04 06:30:06;;;;;;;5.70;5.20;;;;;;;14.56;66.50;100601.66;4973624;28;20034;-73
2021/09/04 06:32:31;;;;;;;5.38;4.85;;;;;;;14.62;66.10;100608.81;4965006;28;20035;-74
2021/09/04 06:34:57;;;;;;;4.93;4.60;;;;;;;14.63;66.25;100613.19;4978298;28;20030;-74
2021/09/04 06:37:23;;;;;;;5.53;5.18;;;;;;;14.65;65.98;100610.97;4979095;28;20062;-75
2021/09/04 06:39:51;;;;;;;5.35;5.05;;;;;;;14.67;66.25;100619.75;4962766;28;20408;-75
2021/09/04 06:42:17;;;;;;;4.93;4.63;;;;;;;14.72;66.15;100616.97;4971788;28;20504;-74
2021/09/04 06:44:43;;;;;;;4.85;4.63;;;;;;;14.79;65.96;100619.38;4948055;28;20038;-73
2021/09/04 06:47:08;;;;;;;4.40;4.03;;;;;;;14.86;65.79;100627.31;4982728;28;20543;-75
2021/09/04 06:49:36;;;;;;;5.13;4.63;;;;;;;14.90;65.94;100628.38;4979644;28;20042;-73
2021/09/04 06:52:05;;;;;;;4.00;3.78;;;;;;;14.96;65.69;100621.69;4966284;28;20031;-71
2021/09/04 06:54:30;;;;;;;3.80;3.60;;;;;;;15.02;65.73;100617.78;4947747;28;20100;-72
2021/09/04 06:56:55;;;;;;;3.83;3.63;;;;;;;15.12;66.11;100623.19;4981453;28;20038;-71
2021/09/04 06:59:21;;;;;;;4.50;4.22;;;;;;;15.22;66.03;100622.25;4981574;28;20096;-72
2021/09/04 07:01:49;;;;;;;4.40;4.07;;;;;;;15.31;65.57;100622.44;4955434;28;20030;-73
2021/09/04 07:04:15;;;;;;;3.90;3.67;;;;;;;15.39;65.05;100618.19;4962957;28;20054;-71
2021/09/04 07:06:41;;;;;;;3.92;3.72;;;;;;;15.49;65.33;100616.16;4985055;28;20030;-71
2021/09/04 07:09:06;;;;;;;4.15;3.92;;;;;;;15.60;64.72;100624.31;4967319;28;20023;-73
2021/09/04 07:11:32;;;;;;;5.10;4.80;;;;;;;15.71;64.90;100625.78;4984291;28;20056;-71
2021/09/04 07:13:57;;;;;;;4.63;4.38;;;;;;;15.85;65.25;100625.94;4986139;28;20041;-73
2021/09/04 07:16:28;;;;;;;4.63;4.32;;;;;;;16.04;64.58;100635.03;4961312;28;20030;-73
2021/09/04 07:18:54;;;;;;;5.95;4.75;;;;;;;16.20;64.49;100627.34;4956035;28;20044;-72
2021/09/04 07:21:47;;;;;;;4.75;4.35;;;;;;;16.44;64.12;100625.59;4977265;28;20038;-76
2021/09/04 07:24:15;;;;;;;4.97;4.68;;;;;;;16.55;63.84;100622.38;4959405;28;20050;-77
2021/09/04 07:26:41;;;;;;;4.50;4.20;;;;;;;16.71;63.52;100620.19;4985550;28;20030;-76
2021/09/04 07:29:06;;;;;;;5.60;4.90;;;;;;;16.86;63.22;100621.84;4975969;28;20059;-76
2021/09/04 07:31:35;;;;;;;5.35;5.05;;;;;;;17.04;62.80;100622.09;4991318;28;20449;-78
2021/09/04 07:34:00;;;;;;;5.40;4.90;;;;;;;17.17;62.65;100617.72;4966298;28;20050;-78
2021/09/04 07:36:28;;;;;;;5.65;5.25;;;;;;;17.29;62.36;100620.81;4958748;28;20026;-78
2021/09/04 07:39:03;;;;;;;7.13;5.13;;;;;;;17.38;62.33;100615.41;4966423;28;20030;-77
2021/09/04 07:41:28;;;;;;;5.65;5.35;;;;;;;17.47;62.35;100619.06;4990987;28;20034;-76
2021/09/04 07:43:54;;;;;;;6.72;5.75;;;;;;;17.52;61.88;100621.75;4989280;28;20038;-76
2021/09/04 07:46:23;;;;;;;7.45;6.82;;;;;;;17.54;62.12;100619.47;4945027;28;20102;-76
2021/09/04 07:48:58;;;;;;;5.80;5.30;;;;;;;17.71;62.15;100624.41;4985277;28;20041;-77
2021/09/04 07:51:26;;;;;;;8.75;6.97;;;;;;;17.90;62.46;100629.81;4979431;28;20380;-77
2021/09/04 07:53:54;;;;;;;6.82;6.22;;;;;;;18.01;62.11;100627.63;4984340;28;20591;-75
2021/09/04 07:56:19;;;;;;;13.18;8.27;;;;;;;18.11;62.25;100638.47;4965062;28;20034;-76
2021/09/04 07:58:45;;;;;;;20.55;11.48;;;;;;;18.19;61.98;100636.91;4985092;28;20058;-76
2021/09/04 08:01:10;;;;;;;12.00;8.13;;;;;;;18.30;61.80;100630.00;4951180;28;20030;-75
2021/09/04 08:03:38;;;;;;;9.05;7.40;;;;;;;18.46;61.82;100632.41;4954574;28;20050;-76
2021/09/04 08:06:05;;;;;;;7.03;6.18;;;;;;;18.62;61.79;100630.88;4989547;28;20030;-76
2021/09/04 08:08:33;;;;;;;8.15;6.55;;;;;;;18.74;61.32;100635.03;4968919;28;20034;-76
2021/09/04 08:10:59;;;;;;;10.85;7.80;;;;;;;18.94;61.25;100629.00;4957691;28;20052;-77
2021/09/04 08:13:25;;;;;;;12.25;9.27;;;;;;;19.12;60.76;100637.41;4970660;28;20509;-75
2021/09/04 08:15:52;;;;;;;18.63;8.45;;;;;;;19.41;60.70;100630.53;4954134;28;20015;-74
2021/09/04 08:18:18;;;;;;;17.08;9.02;;;;;;;19.70;59.90;100641.03;4981795;28;24419;-75
2021/09/04 08:20:43;;;;;;;13.43;9.10;;;;;;;19.94;59.26;100645.38;4991423;28;20121;-76
2021/09/04 08:23:09;;;;;;;19.45;9.98;;;;;;;20.10;58.52;100642.94;4990057;28;20026;-76
2021/09/04 08:25:42;;;;;;;12.65;8.32;;;;;;;20.27;58.29;100633.78;4972224;28;20022;-77
2021/09/04 08:28:09;;;;;;;9.43;8.02;;;;;;;20.43;57.44;100639.66;4944740;28;20381;-76
2021/09/04 08:30:37;;;;;;;13.18;8.80;;;;;;;20.61;57.24;100646.84;4988163;28;20092;-76
2021/09/04 08:33:03;;;;;;;14.32;9.13;;;;;;;20.77;56.75;100644.41;4987946;28;20121;-76
2021/09/04 08:35:29;;;;;;;12.40;9.00;;;;;;;20.88;56.41;100650.41;4977747;28;20045;-76
2021/09/04 08:37:55;;;;;;;10.18;8.38;;;;;;;21.01;56.15;100648.59;4983139;28;20481;-74
2021/09/04 08:40:21;;;;;;;8.25;7.32;;;;;;;21.17;56.33;100646.09;4991116;28;20041;-75
2021/09/04 08:42:48;;;;;;;9.48;7.43;;;;;;;21.29;55.90;100646.22;4993970;28;20026;-76
2021/09/04 08:45:16;;;;;;;6.47;5.97;;;;;;;21.45;55.70;100643.69;4988863;28;20593;-75
2021/09/04 08:47:45;;;;;;;8.95;6.47;;;;;;;21.64;55.58;100648.88;4972654;28;20094;-75
2021/09/04 08:50:11;;;;;;;6.53;5.82;;;;;;;21.76;54.92;100657.28;4956768;28;20084;-77
2021/09/04 08:52:36;;;;;;;6.05;5.22;;;;;;;21.83;54.78;100653.16;4952605;28;20023;-76
2021/09/04 08:55:02;;;;;;;9.00;8.23;;;;;;;21.88;54.58;100661.31;4969911;28;20035;-77
2021/09/04 08:57:28;;;;;;;6.38;5.88;;;;;;;21.87;54.37;100656.91;4969376;28;20531;-76
2021/09/04 08:59:58;;;;;;;5.20;4.97;;;;;;;21.96;54.49;100652.09;4969199;28;20205;-77
2021/09/04 09:02:40;;;;;;;;;;;;;;;;;;;;;
2021/09/04 09:05:10;;;;;;;7.47;6.90;;;;;;;22.16;53.76;100658.03;4965181;28;20031;-77
2021/09/04 09:07:48;;;;;;;6.53;5.88;;;;;;;22.32;53.89;100670.22;4973132;28;20129;-79
2021/09/04 09:11:15;;;;;;;9.65;8.07;;;;;;;22.58;52.81;100669.19;4972177;28;20027;-78
2021/09/04 09:14:06;;;;;;;7.67;7.00;;;;;;;22.84;52.95;100666.94;4966540;28;20018;-77
2021/09/04 09:16:57;;;;;;;5.95;5.55;;;;;;;23.07;52.77;100658.19;4978722;28;20039;-78
2021/09/04 09:19:40;;;;;;;6.72;6.22;;;;;;;23.41;51.95;100667.34;4972257;28;20460;-75
2021/09/04 09:22:34;;;;;;;6.80;5.95;;;;;;;23.71;51.49;100650.34;4971560;28;20031;-75
2021/09/04 09:25:41;;;;;;;7.40;6.68;;;;;;;24.24;51.00;100664.38;4966939;28;20035;-74
2021/09/04 09:28:14;;;;;;;9.70;7.53;;;;;;;24.77;50.07;100669.91;4965984;28;20047;-75
2021/09/04 09:30:48;;;;;;;7.03;5.57;;;;;;;25.35;49.50;100665.84;4970009;28;20018;-73
2021/09/04 09:33:21;;;;;;;7.38;6.60;;;;;;;25.75;48.24;100667.66;4964384;28;20112;-74
2021/09/04 09:35:52;;;;;;;7.28;6.43;;;;;;;25.98;47.26;100664.16;4962782;28;20438;-76
2021/09/04 09:38:20;;;;;;;5.53;5.00;;;;;;;26.26;46.51;100673.22;4968733;28;20059;-78
2021/09/04 09:40:54;;;;;;;5.68;5.30;;;;;;;26.55;46.36;100667.44;4984674;28;20054;-77
2021/09/04 09:43:22;;;;;;;6.40;5.97;;;;;;;26.85;45.32;100662.00;4969635;28;20461;-76
2021/09/04 09:49:08;;;;;;;4.93;4.63;;;;;;;27.86;44.63;100666.53;4967618;28;20070;-74
2021/09/04 09:51:43;;;;;;;6.65;4.55;;;;;;;28.27;43.23;100661.13;4944680;28;20113;-73
2021/09/04 09:54:31;;;;;;;;;;;;;;;;;;;;;
2021/09/04 09:57:20;;;;;;;8.18;5.50;;;;;;;29.44;41.65;100656.38;4949005;28;20053;-74
2021/09/04 10:00:07;;;;;;;6.47;4.30;;;;;;;29.85;40.72;100644.22;4943633;28;20046;-74
2021/09/04 10:03:07;;;;;;;;;;;;;;;;;;;;;
2021/09/04 10:05:42;;;;;;;4.05;3.85;;;;;;;30.29;39.22;100646.84;4980105;28;20083;-75
2021/09/04 10:08:29;;;;;;;;;;;;;;;;;;;;;
2021/09/04 10:10:58;;;;;;;4.93;4.63;;;;;;;31.32;37.77;100649.56;4974247;28;20172;-75
2021/09/04 10:13:25;;;;;;;7.75;7.05;;;;;;;31.18;34.87;100643.91;4971275;28;20082;-76
2021/09/04 10:15:58;;;;;;;7.95;6.88;;;;;;;31.06;34.69;100648.75;4981315;28;20031;-75
2021/09/04 10:18:55;;;;;;;6.97;6.57;;;;;;;30.76;34.59;100630.09;4971794;28;20519;-75
2021/09/04 10:21:21;;;;;;;6.80;6.30;;;;;;;30.97;34.54;100642.63;4962992;28;20039;-76
2021/09/04 10:24:13;;;;;;;9.98;7.80;;;;;;;30.93;34.36;100639.03;4960821;28;20081;-75
2021/09/04 10:27:44;;;;;;;;;;;;;;;;;;;;;
2021/09/04 10:30:45;;;;;;;;;;;;;;;;;;;;;
2021/09/04 10:33:43;;;;;;;11.63;8.48;;;;;;;30.43;34.83;100646.16;4960907;28;20115;-76
2021/09/04 10:36:13;;;;;;;7.72;7.13;;;;;;;30.21;34.74;100644.41;4953616;28;20130;-76
2021/09/04 10:38:46;;;;;;;8.18;7.47;;;;;;;29.91;34.88;100648.28;4930671;28;20034;-76
2021/09/04 10:42:07;;;;;;;7.07;6.57;;;;;;;29.72;35.46;100636.06;4965535;28;20035;-76
2021/09/04 10:44:35;;;;;;;8.55;6.03;;;;;;;29.93;35.38;100634.59;4938400;28;20039;-77
2021/09/04 10:47:09;;;;;;;5.95;5.65;;;;;;;30.13;35.40;100629.47;4971146;28;20039;-73
2021/09/04 10:49:48;;;;;;;5.72;5.22;;;;;;;30.85;35.88;100643.03;4969623;28;20073;-73
2021/09/04 10:52:14;;;;;;;4.90;4.60;;;;;;;31.75;34.58;100648.75;4954522;28;20062;-73
2021/09/04 10:55:00;;;;;;;5.18;4.40;;;;;;;32.69;34.10;100654.91;4967731;28;20054;-73
2021/09/04 10:57:47;;;;;;;4.03;3.83;;;;;;;33.30;33.52;100636.72;4957163;28;20030;-74
2021/09/04 11:00:24;;;;;;;3.67;3.58;;;;;;;33.52;32.71;100640.97;4947489;28;20050;-74
2021/09/04 11:03:09;;;;;;;4.25;3.95;;;;;;;33.83;32.43;100641.06;4965590;28;20022;-73
2021/09/04 11:06:04;;;;;;;3.65;3.45;;;;;;;34.12;31.76;100646.44;4967684;28;20031;-74
2021/09/04 11:08:34;;;;;;;5.53;5.22;;;;;;;34.13;30.53;100648.06;4953825;28;20118;-73
2021/09/04 11:11:27;;;;;;;4.60;4.30;;;;;;;34.36;30.91;100649.41;4957241;28;20031;-74
2021/09/04 11:14:03;;;;;;;6.45;5.90;;;;;;;34.49;29.93;100641.13;4967747;28;20033;-74
2021/09/04 11:16:41;;;;;;;5.45;4.30;;;;;;;34.71;30.03;100641.63;4961620;28;20457;-74
2021/09/04 11:19:31;;;;;;;4.07;3.88;;;;;;;34.91;29.93;100648.25;4963622;28;20035;-74
2021/09/04 11:22:11;;;;;;;5.60;5.07;;;;;;;34.69;28.98;100638.44;4967389;28;20512;-73
2021/09/04 11:24:45;;;;;;;7.60;7.00;;;;;;;34.35;28.29;100633.63;4967012;28;20038;-73
2021/09/04 11:27:21;;;;;;;7.47;6.87;;;;;;;34.14;28.88;100626.97;4963691;28;20066;-73
2021/09/04 11:29:57;;;;;;;5.88;5.47;;;;;;;33.88;28.50;100608.63;4981780;28;20034;-74
2021/09/04 11:32:32;;;;;;;6.40;6.00;;;;;;;33.62;28.68;100625.06;4971028;28;20037;-73
2021/09/04 11:35:03;;;;;;;5.45;5.15;;;;;;;33.14;29.11;100629.53;4963423;28;20019;-73
2021/09/04 11:37:35;;;;;;;5.10;4.70;;;;;;;32.75;29.99;100624.94;4965162;28;20511;-73
2021/09/04 11:40:06;;;;;;;5.78;5.38;;;;;;;32.59;30.54;100624.63;4963297;28;20267;-74
2021/09/04 11:42:34;;;;;;;5.25;4.93;;;;;;;32.56;30.34;100622.63;4967219;28;20114;-72
2021/09/04 11:45:31;;;;;;;5.97;5.45;;;;;;;32.59;30.26;100621.78;4961589;28;20370;-74
2021/09/04 11:48:06;;;;;;;4.63;4.25;;;;;;;32.70;30.67;100622.56;4943118;28;20039;-74